• Join FlightAware (Why Join?)
  • Login
  • US Flag 
07:21PM EDT


 

Airport Tracker/Info


-or-


 

Live Flight TrackerFlight Track Log ✈ JBU667 ✈ 16-Jul-2013 ✈ KMCO - TJPS / PSE

Flight Track Log - Related Links

Times and Time Zones

All times are in EDT time to prevent confusion due to time zone crossing. See the JBU667 flight status page for this flight to view local times or setup timezone preferences in your user account.

Time Position Orientation Groundspeed Altitude Reporting Facility
EDT Latitude Longitude Course Direction KTS MPH feet Rate Location/Type
10:15PM 28.4350 -81.3160 146° Southeast 1 1  Level FlightAware
10:23PM 28.4350 -81.3180 270° West 7 8  Level FlightAware
10:23PM 28.4360 -81.3180 360° North 8 9  Level FlightAware
10:24PM 28.4370 -81.3180 360° North 8 9  Level FlightAware
10:24PM 28.4380 -81.3180 360° North 9 10 60 Level FlightAware
10:25PM 28.4400 -81.3190 336° Northwest 12 14 60 Level FlightAware
10:25PM 28.4410 -81.3190 360° North 7 8 60 Level FlightAware
10:26PM 28.4420 -81.3190 360° North 10 12 60 Level FlightAware
10:26PM 28.4440 -81.3190 360° North 5 6 60 Level FlightAware
10:27PM 28.4450 -81.3190 360° North 8 9 60 Level FlightAware
10:27PM 28.4460 -81.3190 360° North 10 12 120 Level FlightAware
10:28PM 28.4470 -81.3190 360° North 13 15 120 Level FlightAware
10:28PM 28.4480 -81.3200 319° Northwest 13 15 120 Level FlightAware
10:28PM 28.4480 -81.3220 270° West 11 13 180 Level FlightAware
10:29PM 28.4470 -81.3220 180° South 14 16 240 Level FlightAware
10:29PM 28.4360 -81.3220 180° South 132 152 420 Level FlightAware
10:30PM 28.4170 -81.3220 180° South 163 188 400 1,620 Climbing FlightAware
10:30PM 28.4030 -81.3150 156° South 152 175 1,200 1,680 Climbing FlightAware
10:31PM 28.3840 -81.2970 140° Southeast 195 224 1,800 1,200 Climbing FlightAware
10:31PM 28.3660 -81.2790 139° Southeast 223 257 2,300 2,280 Climbing FlightAware
10:32PM 28.3410 -81.2550 140° Southeast 237 273 3,900 3,480 Climbing FlightAware
10:32PM 28.3200 -81.2350 140° Southeast 218 251 5,600 3,240 Climbing FlightAware
10:32PM 28.3040 -81.2120 128° Southeast 229 264 6,600 2,640 Climbing FlightAware
10:33PM 28.2890 -81.1790 117° Southeast 235 270 8,000 2,760 Climbing FlightAware
10:33PM 28.2820 -81.1610 114° Southeast 237 273 8,700 2,760 Climbing FlightAware
10:34PM 28.2680 -81.1290 116° Southeast 239 275 10,100 2,820 Climbing FlightAware
10:34PM 28.2520 -81.1010 123° Southeast 244 281 11,300 2,580 Climbing FlightAware
10:35PM 28.2190 -81.0630 135° Southeast 257 296 12,900 2,040 Climbing FlightAware
10:35PM 28.1930 -81.0310 133° Southeast 283 326 13,700 1,500 Climbing FlightAware
10:36PM 28.1490 -80.9790 134° Southeast 312 359 14,800 1,440 Climbing FlightAware
10:37PM 28.1060 -80.9290 134° Southeast 335 386 15,800 1,440 Climbing FlightAware
10:37PM 28.0560 -80.8700 134° Southeast 357 411 16,900 1,620 Climbing FlightAware
10:38PM 28.0190 -80.8270 134° Southeast 372 428 17,800 1,740 Climbing FlightAware
10:39PM 27.9660 -80.7640 134° Southeast 376 433 19,100 1,860 Climbing FlightAware
10:39PM 27.9110 -80.7000 134° Southeast 378 435 20,600 1,980 Climbing FlightAware
10:40PM 27.8730 -80.6550 134° Southeast 377 434 21,600 1,920 Climbing FlightAware
10:41PM 27.8180 -80.5910 134° Southeast 377 434 23,000 1,620 Climbing FlightAware
10:41PM 27.7680 -80.5330 134° Southeast 381 438 24,000 1,500 Climbing FlightAware
10:42PM 27.7310 -80.4650 122° Southeast 387 445 25,000 1,440 Climbing FlightAware
10:43PM 27.7040 -80.3780 109° East 391 450 26,100 840 Climbing FlightAware
10:44PM 27.6740 -80.2810 109° East 392 451 26,500 1,260 Climbing FlightAware
10:44PM 27.6480 -80.1950 109° East 405 466 28,100 1,680 Climbing FlightAware
10:45PM 27.6200 -80.1010 109° East 415 478 28,800 960 Climbing FlightAware
10:46PM 27.5950 -80.0200 109° East 422 486 29,500 960 Climbing FlightAware
10:47PM 27.5670 -79.9240 108° East 430 495 30,200 900 Climbing FlightAware
10:47PM 27.5360 -79.8440 114° Southeast 435 501 30,800 960 Climbing FlightAware
10:48PM 27.4840 -79.7610 125° Southeast 433 498 31,600 1,020 Climbing FlightAware
10:49PM 27.4360 -79.6850 125° Southeast 435 501 32,300 1,020 Climbing FlightAware
10:49PM 27.3960 -79.6220 126° Southeast 441 507 32,900 960 Climbing FlightAware
10:50PM 27.3350 -79.5260 126° Southeast 442 509 33,700 960 Climbing FlightAware
10:51PM 27.2890 -79.4510 125° Southeast 437 503 34,400 1,020 Climbing FlightAware
10:51PM 27.2380 -79.3700 125° Southeast 439 505 35,100 900 Climbing FlightAware
10:52PM 27.1850 -79.2850 125° Southeast 434 499 35,800 780 Climbing FlightAware
10:53PM 27.1380 -79.2110 126° Southeast 434 499 36,300 600 Climbing FlightAware
10:54PM 27.0870 -79.1310 126° Southeast 438 504 36,700 480 Climbing FlightAware
10:54PM 27.0280 -79.0680 136° Southeast 433 498 37,000 240 Climbing FlightAware
10:55PM 26.9820 -79.0280 142° Southeast 432 497 37,000  Level FlightAware
10:55PM 26.9240 -78.9790 143° Southeast 430 495 37,000  Level FlightAware
10:56PM 26.8580 -78.9210 142° Southeast 431 496 37,000  Level FlightAware
10:57PM 26.7900 -78.8610 142° Southeast 432 497 37,000  Level FlightAware
10:57PM 26.7390 -78.8160 142° Southeast 433 498 37,000  Level FlightAware
10:58PM 26.6710 -78.7220 129° Southeast 447 514 37,000 60 Level FlightAware
10:59PM 26.6550 -78.6350 102° East 451 519 37,100 60 Climbing FlightAware
10:59PM 26.6460 -78.5480 97° East 447 514 37,100 -120 Level FlightAware
11:00PM 26.6370 -78.4470 96° East 445 512 37,000 -120 Descending FlightAware
11:01PM 26.6280 -78.3570 96° East 446 513 37,000  Level FlightAware
11:02PM 26.6190 -78.2560 96° East 446 513 37,000  Level FlightAware
11:02PM 26.6110 -78.1740 96° East 448 516 37,000  Level FlightAware
11:03PM 26.6040 -78.0780 95° East 448 516 37,000  Level FlightAware
11:04PM 26.5980 -78.0070 95° East 448 516 37,000  Level FlightAware
11:04PM 26.5910 -77.9130 95° East 448 516 37,000  Level FlightAware
11:05PM 26.5850 -77.8420 95° East 448 516 37,000  Level FlightAware
11:06PM 26.5780 -77.7480 95° East 448 516 37,000  Level FlightAware
11:06PM 26.5720 -77.6770 95° East 448 516 37,000  Level FlightAware
11:07PM 26.5650 -77.5830 95° East 448 516 37,000  Level FlightAware
11:08PM 26.5590 -77.5130 95° East 448 516 37,000  Level FlightAware
11:08PM 26.5540 -77.4420 94° East 448 516 37,000  Level FlightAware
11:09PM 26.5460 -77.3480 95° East 448 516 37,000  Level FlightAware
11:10PM 26.5410 -77.2750 94° East 448 516 37,000  Level FlightAware
11:10PM 26.5350 -77.2050 95° East 448 516 37,000  Level FlightAware
11:11PM 26.5280 -77.1180 95° East 448 516 37,000  Level FlightAware
11:12PM 26.5230 -77.0480 95° East 448 516 37,000  Level FlightAware
11:13PM 26.5147 -76.7100 95° East 451 519 37,000  Level Miami Center
11:14PM 26.4914 -76.5708 101° East 446 513 37,000  Level Miami Center
11:15PM 26.4536 -76.4364 107° East 446 513 37,000  Level Miami Center
11:16PM 26.4092 -76.2994 110° East 458 527 37,000  Level Miami Center
11:17PM 26.3689 -76.1722 109° East 458 527 37,000  Level Miami Center
11:18PM 26.3264 -76.0381 109° East 458 527 37,000  Level Miami Center
11:19PM 26.2839 -75.9039 109° East 458 527 37,000  Level Miami Center
11:20PM 26.2328 -75.7675 113° Southeast 458 527 37,000  Level Miami Center
11:21PM 26.1836 -75.6406 113° Southeast 458 527 37,000  Level Miami Center
11:22PM 26.1261 -75.5164 117° Southeast 452 520 37,000  Level Miami Center
11:23PM 26.0603 -75.3897 120° Southeast 460 529 37,100  Climbing Miami Center
11:24PM 25.9961 -75.2658 120° Southeast 460 529 37,000 -60 Descending Miami Center
11:25PM 25.9278 -75.1419 122° Southeast 467 537 37,000  Level Miami Center
11:26PM 25.8658 -75.0228 120° Southeast 467 537 37,000  Level Miami Center
11:27PM 25.8017 -74.9014 120° Southeast 461 531 37,000  Level Miami Center
11:28PM 25.7606 -74.8053 115° Southeast 450 518 37,000  Level Miami Center
11:29PM 25.6792 -74.6683 123° Southeast 459 528 37,000  Level Miami Center
11:30PM 25.6147 -74.5450 120° Southeast 464 534 37,000  Level Miami Center
11:31PM 25.5519 -74.4264 120° Southeast 464 534 37,000  Level Miami Center
11:32PM 25.4872 -74.3011 120° Southeast 469 540 37,000  Level Miami Center
11:33PM 25.4203 -74.1736 120° Southeast 459 528 37,000  Level Miami Center
11:34PM 25.3594 -74.0578 120° Southeast 459 528 37,000  Level Miami Center
11:35PM 25.2900 -73.9261 120° Southeast 471 542 37,000  Level Miami Center
11:36PM 25.2269 -73.8036 120° Southeast 471 542 37,000  Level Miami Center
11:37PM 25.1639 -73.6789 119° Southeast 458 527 37,000  Level Miami Center
11:38PM 25.0986 -73.5614 122° Southeast 458 527 37,000  Level Miami Center
11:39PM 25.0106 -73.4628 135° Southeast 458 527 37,000  Level Miami Center
11:40PM 24.9186 -73.3669 137° Southeast 458 527 37,000  Level Miami Center
11:41PM 24.8264 -73.2689 136° Southeast 453 521 37,000  Level Miami Center
11:42PM 24.7319 -73.1711 137° Southeast 459 528 37,000  Level Miami Center
11:43PM 24.6397 -73.0731 136° Southeast 459 528 37,000  Level Miami Center
11:44PM 24.5369 -72.9714 138° Southeast 467 537 37,000  Level Miami Center
11:45PM 24.4508 -72.8781 135° Southeast 455 524 37,000  Level Miami Center
11:46PM 24.3561 -72.7786 136° Southeast 461 531 37,000  Level Miami Center
11:47PM 24.2658 -72.6814 136° Southeast 461 531 37,000  Level Miami Center
11:48PM 24.1711 -72.5819 136° Southeast 461 531 37,000  Level Miami Center
11:49PM 24.0697 -72.4764 136° Southeast 461 531 37,000  Level Miami Center
11:50PM 23.9772 -72.3819 137° Southeast 461 531 37,000  Level Miami Center
11:51PM 23.8844 -72.2806 135° Southeast 461 531 37,000  Level Miami Center
11:52PM 23.7914 -72.1819 136° Southeast 461 531 37,000  Level Miami Center
11:53PM 23.6967 -72.0925 139° Southeast 456 525 37,000  Level Miami Center
11:54PM 23.6039 -71.9964 136° Southeast 456 525 37,000  Level Miami Center
11:55PM 23.5131 -71.9025 137° Southeast 456 525 37,000  Level Miami Center
11:56PM 23.4181 -71.8044 137° Southeast 464 534 37,000  Level Miami Center
11:57PM 23.3250 -71.7131 138° Southeast 458 527 37,000  Level Miami Center
11:58PM 23.2361 -71.6128 134° Southeast 458 527 37,000  Level Miami Center
11:59PM 23.1517 -71.5325 139° Southeast 458 527 37,000  Level Miami Center
12:00AM 23.0628 -71.4394 136° Southeast 452 520 37,000  Level Miami Center
12:01AM 22.9717 -71.3439 136° Southeast 452 520 37,000  Level Miami Center
12:02AM 22.8786 -71.2533 138° Southeast 452 520 37,000  Level Miami Center
12:03AM 22.7875 -71.1606 137° Southeast 452 520 37,000  Level Miami Center
12:04AM 22.6964 -71.0678 137° Southeast 452 520 37,000  Level Miami Center
12:05AM 22.6050 -70.9731 136° Southeast 446 513 37,000  Level Miami Center
12:06AM 22.5117 -70.8808 138° Southeast 451 519 37,000  Level Miami Center
12:07AM 22.4161 -70.7864 138° Southeast 457 526 37,000  Level Miami Center
12:08AM 22.3269 -70.6942 136° Southeast 457 526 37,000  Level Miami Center
12:09AM 22.2356 -70.6019 137° Southeast 457 526 37,000  Level Miami Center
12:10AM 22.1419 -70.5103 138° Southeast 457 526 37,000  Level Miami Center
12:11AM 22.0506 -70.4183 137° Southeast 457 526 37,000  Level Miami Center
12:12AM 21.9589 -70.3244 136° Southeast 457 526 37,000  Level Miami Center
12:13AM 21.8653 -70.2331 138° Southeast 457 526 37,000  Level Miami Center
12:14AM 21.7717 -70.1417 138° Southeast 457 526 37,000  Level Miami Center
12:15AM 21.6822 -70.0503 136° Southeast 457 526 37,000  Level Miami Center
12:16AM 21.5925 -69.9592 137° Southeast 457 526 37,000  Level Miami Center
12:17AM 21.4989 -69.8703 139° Southeast 451 519 37,000  Level Miami Center
12:18AM 21.4031 -69.7797 139° Southeast 451 519 37,000  Level Miami Center
12:19AM 21.3175 -69.6861 134° Southeast 451 519 37,000  Level Miami Center
12:20AM 21.2236 -69.5958 138° Southeast 451 519 37,000  Level Miami Center
12:21AM 21.1208 -69.4969 138° Southeast 451 519 37,000  Level Miami Center
12:22AM 21.0292 -69.4064 137° Southeast 451 519 37,000  Level Miami Center
12:28AM 20.4460 -68.8410 137° Southeast 451 519 37,000  Level FlightAware
12:29AM 20.3770 -68.7740 138° Southeast 450 518 37,000  Level FlightAware
12:29AM 20.3150 -68.7150 138° Southeast 451 519 37,000  Level FlightAware
12:30AM 20.2590 -68.6600 137° Southeast 452 520 37,000  Level FlightAware
12:31AM 20.1920 -68.5960 138° Southeast 453 521 37,000  Level FlightAware
12:31AM 20.1270 -68.5340 138° Southeast 455 524 37,000  Level FlightAware
12:32AM 20.0620 -68.4710 138° Southeast 458 527 37,000  Level FlightAware
12:33AM 19.9950 -68.4070 138° Southeast 460 529 37,000  Level FlightAware
12:33AM 19.9310 -68.3460 138° Southeast 463 533 37,000 60 Level FlightAware
12:34AM 19.8620 -68.2790 138° Southeast 463 533 37,100  Climbing FlightAware
12:35AM 19.7980 -68.2180 138° Southeast 462 532 37,000 -300 Descending FlightAware
12:36AM 19.7290 -68.1520 138° Southeast 463 533 36,700 -840 Descending FlightAware
12:36AM 19.6650 -68.0910 138° Southeast 459 528 35,900 -1,320 Descending FlightAware
12:37AM 19.5950 -68.0240 138° Southeast 464 534 34,900 -1,380 Descending FlightAware
12:38AM 19.5320 -67.9640 138° Southeast 466 536 34,000 -1,560 Descending FlightAware
12:38AM 19.4580 -67.8930 138° Southeast 465 535 32,700 -2,340 Descending FlightAware
12:39AM 19.3960 -67.8350 139° Southeast 469 540 30,800 -2,700 Descending FlightAware
12:40AM 19.3280 -67.7710 138° Southeast 462 532 29,100 -2,280 Descending FlightAware
12:40AM 19.2600 -67.7060 138° Southeast 449 517 27,600 -2,160 Descending FlightAware
12:41AM 19.1980 -67.6470 138° Southeast 439 505 26,100 -2,280 Descending FlightAware
12:42AM 19.1430 -67.5950 138° Southeast 433 498 24,700 -2,220 Descending FlightAware
12:43AM 19.0780 -67.5340 138° Southeast 422 486 23,200 -2,100 Descending FlightAware
12:43AM 19.0210 -67.4800 138° Southeast 411 473 21,800 -1,680 Descending FlightAware
12:44AM 18.9640 -67.4270 139° Southeast 399 459 21,000 -1,140 Descending FlightAware
12:44AM 18.9150 -67.3810 138° Southeast 375 432 20,400 -1,080 Descending FlightAware
12:45AM 18.8610 -67.3290 138° Southeast 351 404 19,600 -1,020 Descending FlightAware
12:46AM 18.8120 -67.2840 139° Southeast 342 394 19,000 -960 Descending FlightAware
12:46AM 18.7700 -67.2440 138° Southeast 339 390 18,400 -960 Descending FlightAware
12:47AM 18.7240 -67.2000 138° Southeast 335 386 17,800 -1,200 Descending FlightAware
12:48AM 18.6750 -67.1550 139° Southeast 338 389 16,800 -1,440 Descending FlightAware
12:49AM 18.6260 -67.1090 138° Southeast 326 375 15,800 -1,620 Descending FlightAware
12:49AM 18.5770 -67.0630 138° Southeast 322 371 14,500 -1,800 Descending FlightAware
12:50AM 18.5330 -67.0210 138° Southeast 318 366 13,300 -1,860 Descending FlightAware
12:51AM 18.4870 -66.9790 139° Southeast 313 360 12,000 -1,800 Descending FlightAware
12:51AM 18.4500 -66.9450 139° Southeast 308 354 11,100 -1,200 Descending FlightAware
12:52AM 18.4030 -66.9010 138° Southeast 281 323 10,400 -1,080 Descending FlightAware
12:52AM 18.3780 -66.8770 138° Southeast 279 321 9,800 -1,500 Descending FlightAware
12:53AM 18.3530 -66.8540 139° Southeast 277 319 9,100 -1,500 Descending FlightAware
12:53AM 18.3240 -66.8270 139° Southeast 272 313 8,400 -1,500 Descending FlightAware
12:54AM 18.2960 -66.8000 138° Southeast 270 311 7,600 -1,620 Descending FlightAware
12:54AM 18.2700 -66.7760 139° Southeast 269 310 6,900 -780 Descending FlightAware
12:55AM 18.2430 -66.7510 139° Southeast 271 312 6,900  Level FlightAware
12:55AM 18.2170 -66.7270 139° Southeast 271 312 6,900  Level FlightAware
12:56AM 18.1910 -66.7030 139° Southeast 269 310 6,900  Level FlightAware
12:56AM 18.1650 -66.6790 139° Southeast 268 308 6,900  Level FlightAware
12:57AM 18.1420 -66.6570 138° Southeast 266 306 6,900  Level FlightAware
12:57AM 18.1310 -66.6470 139° Southeast 252 290 6,900  Level FlightAware
12:57AM 18.1040 -66.6220 139° Southeast 220 253 6,900  Level FlightAware
12:58AM 18.0840 -66.6030 138° Southeast 217 250 6,900  Level FlightAware
12:58AM 18.0620 -66.5830 139° Southeast 216 249 6,900  Level FlightAware
12:59AM 18.0410 -66.5640 139° Southeast 216 249 6,900  Level FlightAware
12:59AM 18.0200 -66.5450 139° Southeast 217 250 6,900  Level FlightAware
01:00AM 17.9980 -66.5250 139° Southeast 221 254 6,900  Level FlightAware
01:00AM 17.9870 -66.5190 153° Southeast 225 259 6,900  Level FlightAware
01:00AM 17.9800 -66.5180 172° South 228 262 6,900 -960 Level FlightAware
01:00AM 17.9530 -66.5190 182° South 228 262 6,400 -1,080 Descending FlightAware
01:01AM 17.9200 -66.5210 183° South 226 260 5,900 -660 Descending FlightAware
01:02AM 17.8800 -66.5230 183° South 224 258 5,600 -1,020 Descending FlightAware
01:03AM 17.8667 -66.4500 183° South 200 230 3,900 -1,320 Descending San Juan Center
01:05AM 18.0000 -66.5500 325° Northwest  Level FlightAware Approximate
01:12AM 18.0083 -66.5630 325° Northwest  Level Estimated
01:13AM 18.0083 -66.5630 325° Northwest  Level Estimated
01:14AM 18.0083 -66.5630 325° Northwest  Level Estimated
01:15AM 18.0083 -66.5630 325° Northwest  Level Estimated
01:16AM 18.0083 -66.5630 325° Northwest  Level Estimated
01:17AM 18.0083 -66.5630 325° Northwest  Level Estimated
01:18AM 18.0083 -66.5630 325° Northwest  Level Estimated
01:19AM 18.0083 -66.5630 325° Northwest  Level Estimated
01:20AM 18.0083 -66.5630 325° Northwest  Level Estimated